Time,TemperatureF,DewpointF,PressureIn,WindDirection,WindDirectionDegrees,WindSpeedMPH,WindSpeedGustMPH,Humidity,HourlyPrecipIn,Conditions,Clouds,dailyrainin,SoftwareType,DateUTC
2013-01-15 00:03:00,-9.3,-16.4,30.13,ENE,78,2.0,3.0,70,0.00,,,0.00,vanprod-2.5-rc3,2013-01-15 07:03:00,
2013-01-15 00:08:00,-8.9,-15.7,30.14,East,93,2.0,3.0,71,0.00,,,0.00,vanprod-2.5-rc3,2013-01-15 07:08:00,
2013-01-15 00:13:00,-8.6,-15.5,30.14,East,82,5.0,5.0,71,0.00,,,0.00,vanprod-2.5-rc3,2013-01-15 07:13:00,
2013-01-15 00:18:00,-8.1,-14.7,30.14,ESE,115,3.0,3.0,72,0.00,,,0.00,vanprod-2.5-rc3,2013-01-15 07:18:00,
2013-01-15 00:23:00,-7.4,-14.0,30.14,ESE,112,2.0,3.0,72,0.00,,,0.00,vanprod-2.5-rc3,2013-01-15 07:23:00,
2013-01-15 00:28:00,-7.2,-14.4,30.14,ESE,109,1.0,1.0,70,0.00,,,0.00,vanprod-2.5-rc3,2013-01-15 07:28:00,
2013-01-15 00:33:00,-7.2,-14.4,30.15,ESE,109,0.0,0.0,70,0.00,,,0.00,vanprod-2.5-rc3,2013-01-15 07:33:00,
2013-01-15 00:38:00,-7.4,-14.9,30.15,ESE,108,1.0,1.0,69,0.00,,,0.00,vanprod-2.5-rc3,2013-01-15 07:38:00,
2013-01-15 00:43:00,-8.0,-15.7,30.15,ESE,102,3.0,3.0,68,0.00,,,0.00,vanprod-2.5-rc3,2013-01-15 07:43:00,
2013-01-15 00:48:00,-8.0,-15.2,30.15,East,101,0.0,0.0,70,0.00,,,0.00,vanprod-2.5-rc3,2013-01-15 07:48:00,
2013-01-15 00:53:00,-8.1,-15.3,30.15,East,98,4.0,4.0,70,0.00,,,0.00,vanprod-2.5-rc3,2013-01-15 07:53:00,
2013-01-15 00:58:00,-8.2,-15.3,30.15,East,88,2.0,2.0,70,0.00,,,0.00,vanprod-2.5-rc3,2013-01-15 07:58:00,
2013-01-15 01:03:00,-8.2,-15.3,30.15,East,88,4.0,4.0,70,0.00,,,0.00,vanprod-2.5-rc3,2013-01-15 08:03:00,
2013-01-15 01:08:00,-8.6,-16.0,30.16,East,88,2.0,3.0,69,0.00,,,0.00,vanprod-2.5-rc3,2013-01-15 08:08:00,
2013-01-15 01:13:00,-9.1,-16.8,30.16,East,87,4.0,5.0,68,0.00,,,0.00,vanprod-2.5-rc3,2013-01-15 08:13:00,
2013-01-15 01:18:00,-9.5,-16.9,30.16,East,86,3.0,3.0,69,0.00,,,0.00,vanprod-2.5-rc3,2013-01-15 08:18:00,
2013-01-15 01:23:00,-9.5,-16.6,30.16,East,86,2.0,2.0,70,0.00,,,0.00,vanprod-2.5-rc3,2013-01-15 08:23:00,
2013-01-15 01:28:00,-9.5,-16.6,30.16,East,84,4.0,4.0,70,0.00,,,0.00,vanprod-2.5-rc3,2013-01-15 08:28:00,
2013-01-15 01:33:00,-9.5,-16.3,30.16,East,84,2.0,2.0,71,0.00,,,0.00,vanprod-2.5-rc3,2013-01-15 08:33:00,
2013-01-15 01:38:00,-9.3,-15.9,30.16,East,84,1.0,1.0,72,0.00,,,0.00,vanprod-2.5-rc3,2013-01-15 08:38:00,
2013-01-15 01:43:00,-8.9,-15.5,30.16,East,83,1.0,0.0,72,0.00,,,0.00,vanprod-2.5-rc3,2013-01-15 08:43:00,
2013-01-15 01:48:00,-8.6,-15.2,30.16,East,82,1.0,1.0,72,0.00,,,0.00,vanprod-2.5-rc3,2013-01-15 08:48:00,
2013-01-15 01:53:00,-8.7,-15.6,30.16,East,80,3.0,3.0,71,0.00,,,0.00,vanprod-2.5-rc3,2013-01-15 08:53:00,
2013-01-15 01:58:00,-8.6,-15.2,30.16,ENE,75,2.0,2.0,72,0.00,,,0.00,vanprod-2.5-rc3,2013-01-15 08:58:00,
2013-01-15 02:03:00,-8.7,-15.3,30.16,ENE,75,1.0,1.0,72,0.00,,,0.00,vanprod-2.5-rc3,2013-01-15 09:03:00,
2013-01-15 02:08:00,-8.9,-15.7,30.16,ENE,75,0.0,0.0,71,0.00,,,0.00,vanprod-2.5-rc3,2013-01-15 09:08:00,
2013-01-15 02:13:00,-8.8,-15.4,30.16,ENE,75,1.0,1.0,72,0.00,,,0.00,vanprod-2.5-rc3,2013-01-15 09:13:00,
2013-01-15 02:18:00,-9.1,-15.9,30.16,ENE,74,2.0,3.0,71,0.00,,,0.00,vanprod-2.5-rc3,2013-01-15 09:18:00,
2013-01-15 02:23:00,-9.5,-16.6,30.18,ENE,61,4.0,4.0,70,0.00,,,0.00,vanprod-2.5-rc3,2013-01-15 09:23:00,
2013-01-15 02:28:00,-9.8,-16.6,30.18,ENE,60,6.0,7.0,71,0.00,,,0.00,vanprod-2.5-rc3,2013-01-15 09:28:00,
2013-01-15 02:33:00,-9.7,-16.2,30.18,ENE,74,6.0,6.0,72,0.00,,,0.00,vanprod-2.5-rc3,2013-01-15 09:33:00,
2013-01-15 02:38:00,-9.4,-16.0,30.17,East,80,4.0,4.0,72,0.00,,,0.00,vanprod-2.5-rc3,2013-01-15 09:38:00,
2013-01-15 02:43:00,-9.3,-15.9,30.17,East,84,3.0,3.0,72,0.00,,,0.00,vanprod-2.5-rc3,2013-01-15 09:43:00,
2013-01-15 02:48:00,-9.1,-15.4,30.17,ENE,75,4.0,4.0,73,0.00,,,0.00,vanprod-2.5-rc3,2013-01-15 09:48:00,
2013-01-15 02:53:00,-9.2,-16.0,30.17,ENE,61,2.0,3.0,71,0.00,,,0.00,vanprod-2.5-rc3,2013-01-15 09:53:00,
2013-01-15 02:58:00,-9.4,-16.2,30.17,ENE,62,0.0,0.0,71,0.00,,,0.00,vanprod-2.5-rc3,2013-01-15 09:58:00,
2013-01-15 03:03:00,-9.4,-16.0,30.18,ESE,110,1.0,0.0,72,0.00,,,0.00,vanprod-2.5-rc3,2013-01-15 10:03:00,
2013-01-15 03:08:00,-9.1,-15.7,30.18,ESE,107,1.0,1.0,72,0.00,,,0.00,vanprod-2.5-rc3,2013-01-15 10:08:00,
2013-01-15 03:13:00,-8.9,-15.2,30.18,ESE,111,2.0,3.0,73,0.00,,,0.00,vanprod-2.5-rc3,2013-01-15 10:13:00,
2013-01-15 03:18:00,-8.6,-15.2,30.18,ESE,116,2.0,2.0,72,0.00,,,0.00,vanprod-2.5-rc3,2013-01-15 10:18:00,
2013-01-15 03:23:00,-8.5,-15.1,30.18,ESE,116,1.0,1.0,72,0.00,,,0.00,vanprod-2.5-rc3,2013-01-15 10:23:00,
2013-01-15 03:28:00,-8.5,-15.1,30.18,ESE,117,1.0,1.0,72,0.00,,,0.00,vanprod-2.5-rc3,2013-01-15 10:28:00,
2013-01-15 03:33:00,-8.4,-15.0,30.19,ESE,118,0.0,0.0,72,0.00,,,0.00,vanprod-2.5-rc3,2013-01-15 10:33:00,
2013-01-15 03:38:00,-8.4,-15.0,30.19,ESE,117,0.0,0.0,72,0.00,,,0.00,vanprod-2.5-rc3,2013-01-15 10:38:00,
2013-01-15 03:43:00,-8.3,-14.9,30.19,ESE,118,0.0,0.0,72,0.00,,,0.00,vanprod-2.5-rc3,2013-01-15 10:43:00,
2013-01-15 03:48:00,-8.3,-14.9,30.19,ESE,118,0.0,0.0,72,0.00,,,0.00,vanprod-2.5-rc3,2013-01-15 10:48:00,
2013-01-15 03:53:00,-8.5,-15.4,30.19,ESE,118,0.0,0.0,71,0.00,,,0.00,vanprod-2.5-rc3,2013-01-15 10:53:00,
2013-01-15 03:58:00,-9.0,-15.8,30.20,ESE,117,0.0,0.0,71,0.00,,,0.00,vanprod-2.5-rc3,2013-01-15 10:58:00,
2013-01-15 04:03:00,-9.5,-16.3,30.20,ESE,117,0.0,0.0,71,0.00,,,0.00,vanprod-2.5-rc3,2013-01-15 11:03:00,
2013-01-15 04:08:00,-9.6,-16.1,30.20,ESE,117,0.0,0.0,72,0.00,,,0.00,vanprod-2.5-rc3,2013-01-15 11:08:00,
2013-01-15 04:13:00,-9.5,-15.8,30.20,ESE,117,0.0,0.0,73,0.00,,,0.00,vanprod-2.5-rc3,2013-01-15 11:13:00,
2013-01-15 04:18:00,-9.6,-15.9,30.20,ESE,116,0.0,0.0,73,0.00,,,0.00,vanprod-2.5-rc3,2013-01-15 11:18:00,
2013-01-15 04:23:00,-9.9,-16.4,30.20,ESE,115,1.0,0.0,72,0.00,,,0.00,vanprod-2.5-rc3,2013-01-15 11:23:00,
2013-01-15 04:28:00,-9.9,-16.2,30.19,ENE,74,4.0,5.0,73,0.00,,,0.00,vanprod-2.5-rc3,2013-01-15 11:28:00,
2013-01-15 04:33:00,-9.7,-15.7,30.19,ENE,70,3.0,3.0,74,0.00,,,0.00,vanprod-2.5-rc3,2013-01-15 11:33:00,
2013-01-15 04:38:00,-9.3,-15.3,30.19,ENE,63,6.0,8.0,74,0.00,,,0.00,vanprod-2.5-rc3,2013-01-15 11:38:00,
2013-01-15 04:43:00,-9.1,-15.4,30.19,ENE,62,2.0,3.0,73,0.00,,,0.00,vanprod-2.5-rc3,2013-01-15 11:43:00,
2013-01-15 04:48:00,-9.2,-15.8,30.19,ENE,76,5.0,5.0,72,0.00,,,0.00,vanprod-2.5-rc3,2013-01-15 11:48:00,
2013-01-15 04:53:00,-9.0,-15.3,30.20,ENE,57,3.0,5.0,73,0.00,,,0.00,vanprod-2.5-rc3,2013-01-15 11:53:00,
2013-01-15 04:58:00,-8.8,-15.1,30.21,East,84,3.0,3.0,73,0.00,,,0.00,vanprod-2.5-rc3,2013-01-15 11:58:00,
2013-01-15 05:03:00,-8.4,-14.4,30.21,East,101,3.0,5.0,74,0.00,,,0.00,vanprod-2.5-rc3,2013-01-15 12:03:00,
2013-01-15 05:08:00,-8.0,-14.1,30.21,East,84,3.0,3.0,74,0.00,,,0.00,vanprod-2.5-rc3,2013-01-15 12:08:00,
2013-01-15 05:13:00,-7.9,-14.0,30.22,ENE,77,2.0,2.0,74,0.00,,,0.00,vanprod-2.5-rc3,2013-01-15 12:13:00,
2013-01-15 05:18:00,-7.8,-13.9,30.22,East,91,1.0,1.0,74,0.00,,,0.00,vanprod-2.5-rc3,2013-01-15 12:18:00,
2013-01-15 05:23:00,-7.7,-13.8,30.23,East,94,1.0,0.0,74,0.00,,,0.00,vanprod-2.5-rc3,2013-01-15 12:23:00,
2013-01-15 05:28:00,-7.4,-13.5,30.23,East,92,3.0,3.0,74,0.00,,,0.00,vanprod-2.5-rc3,2013-01-15 12:28:00,
2013-01-15 05:33:00,-7.1,-13.2,30.23,ESE,105,1.0,0.0,74,0.00,,,0.00,vanprod-2.5-rc3,2013-01-15 12:33:00,
2013-01-15 05:38:00,-7.0,-13.1,30.22,ENE,78,2.0,2.0,74,0.00,,,0.00,vanprod-2.5-rc3,2013-01-15 12:38:00,
2013-01-15 05:43:00,-7.0,-13.1,30.23,ENE,62,2.0,0.0,74,0.00,,,0.00,vanprod-2.5-rc3,2013-01-15 12:43:00,
2013-01-15 05:48:00,-6.8,-12.9,30.23,ENE,62,0.0,0.0,74,0.00,,,0.00,vanprod-2.5-rc3,2013-01-15 12:48:00,
2013-01-15 05:53:00,-6.7,-12.8,30.22,ENE,62,0.0,0.0,74,0.00,,,0.00,vanprod-2.5-rc3,2013-01-15 12:53:00,
2013-01-15 05:58:00,-6.6,-13.0,30.22,ENE,62,0.0,2.0,73,0.00,,,0.00,vanprod-2.5-rc3,2013-01-15 12:58:00,
2013-01-15 06:03:00,-6.5,-12.9,30.23,ENE,63,1.0,1.0,73,0.00,,,0.00,vanprod-2.5-rc3,2013-01-15 13:03:00,
2013-01-15 06:08:00,-6.7,-13.3,30.23,ENE,68,3.0,4.0,72,0.00,,,0.00,vanprod-2.5-rc3,2013-01-15 13:08:00,
2013-01-15 06:13:00,-6.8,-13.4,30.22,East,79,3.0,3.0,72,0.00,,,0.00,vanprod-2.5-rc3,2013-01-15 13:13:00,
2013-01-15 06:18:00,-7.1,-14.0,30.22,ENE,64,3.0,3.0,71,0.00,,,0.00,vanprod-2.5-rc3,2013-01-15 13:18:00,
2013-01-15 06:23:00,-7.5,-14.4,30.23,ENE,62,6.0,7.0,71,0.00,,,0.00,vanprod-2.5-rc3,2013-01-15 13:23:00,
2013-01-15 06:28:00,-7.5,-14.1,30.23,ENE,68,11.0,11.0,72,0.00,,,0.00,vanprod-2.5-rc3,2013-01-15 13:28:00,
2013-01-15 06:33:00,-7.5,-14.1,30.24,ENE,72,8.0,8.0,72,0.00,,,0.00,vanprod-2.5-rc3,2013-01-15 13:33:00,
2013-01-15 06:38:00,-7.3,-13.9,30.24,ENE,62,6.0,8.0,72,0.00,,,0.00,vanprod-2.5-rc3,2013-01-15 13:38:00,
2013-01-15 06:43:00,-7.1,-13.7,30.24,East,88,3.0,3.0,72,0.00,,,0.00,vanprod-2.5-rc3,2013-01-15 13:43:00,
2013-01-15 06:48:00,-6.8,-13.2,30.24,East,84,0.0,0.0,73,0.00,,,0.00,vanprod-2.5-rc3,2013-01-15 13:48:00,
2013-01-15 06:53:00,-6.5,-12.9,30.25,East,84,0.0,0.0,73,0.00,,,0.00,vanprod-2.5-rc3,2013-01-15 13:53:00,
2013-01-15 06:58:00,-6.2,-12.6,30.24,East,84,0.0,0.0,73,0.00,,,0.00,vanprod-2.5-rc3,2013-01-15 13:58:00,
2013-01-15 07:03:00,-5.9,-12.3,30.25,ENE,71,2.0,2.0,73,0.00,,,0.00,vanprod-2.5-rc3,2013-01-15 14:03:00,
2013-01-15 07:08:00,-5.7,-12.4,30.24,East,90,1.0,3.0,72,0.00,,,0.00,vanprod-2.5-rc3,2013-01-15 14:08:00,
2013-01-15 07:13:00,-5.5,-12.2,30.24,East,84,2.0,3.0,72,0.00,,,0.00,vanprod-2.5-rc3,2013-01-15 14:13:00,
2013-01-15 07:18:00,-5.5,-12.5,30.24,ENE,67,4.0,4.0,71,0.00,,,0.00,vanprod-2.5-rc3,2013-01-15 14:18:00,
2013-01-15 07:23:00,-5.3,-12.3,30.24,East,85,2.0,3.0,71,0.00,,,0.00,vanprod-2.5-rc3,2013-01-15 14:23:00,
2013-01-15 07:28:00,-5.1,-11.8,30.25,East,81,2.0,2.0,72,0.00,,,0.00,vanprod-2.5-rc3,2013-01-15 14:28:00,
2013-01-15 07:33:00,-5.0,-12.0,30.25,ENE,78,2.0,4.0,71,0.00,,,0.00,vanprod-2.5-rc3,2013-01-15 14:33:00,
2013-01-15 07:38:00,-4.9,-11.9,30.26,ENE,72,3.0,3.0,71,0.00,,,0.00,vanprod-2.5-rc3,2013-01-15 14:38:00,
2013-01-15 07:43:00,-4.6,-11.6,30.27,East,99,2.0,0.0,71,0.00,,,0.00,vanprod-2.5-rc3,2013-01-15 14:43:00,
2013-01-15 07:48:00,-4.3,-11.0,30.28,ESE,102,0.0,0.0,72,0.00,,,0.00,vanprod-2.5-rc3,2013-01-15 14:48:00,
2013-01-15 07:53:00,-4.4,-11.7,30.28,SSE,157,0.0,0.0,70,0.00,,,0.00,vanprod-2.5-rc3,2013-01-15 14:53:00,
2013-01-15 07:58:00,-4.6,-11.6,30.27,SSE,157,0.0,0.0,71,0.00,,,0.00,vanprod-2.5-rc3,2013-01-15 14:58:00,
2013-01-15 08:03:00,-4.8,-11.8,30.28,SSE,157,0.0,0.0,71,0.00,,,0.00,vanprod-2.5-rc3,2013-01-15 15:03:00,
2013-01-15 08:08:00,-5.2,-11.9,30.28,SSE,156,0.0,0.0,72,0.00,,,0.00,vanprod-2.5-rc3,2013-01-15 15:08:00,
2013-01-15 08:13:00,-5.4,-11.8,30.29,SSE,156,0.0,0.0,73,0.00,,,0.00,vanprod-2.5-rc3,2013-01-15 15:13:00,
2013-01-15 08:18:00,-5.3,-11.4,30.29,SSE,156,0.0,0.0,74,0.00,,,0.00,vanprod-2.5-rc3,2013-01-15 15:18:00,
2013-01-15 08:23:00,-5.0,-11.1,30.29,SSE,156,0.0,0.0,74,0.00,,,0.00,vanprod-2.5-rc3,2013-01-15 15:23:00,
2013-01-15 08:28:00,-4.3,-10.2,30.28,SSE,156,0.0,0.0,75,0.00,,,0.00,vanprod-2.5-rc3,2013-01-15 15:28:00,
2013-01-15 08:33:00,-3.6,-9.5,30.29,SSE,149,1.0,1.0,75,0.00,,,0.00,vanprod-2.5-rc3,2013-01-15 15:33:00,
2013-01-15 08:38:00,-2.4,-8.9,30.29,ENE,73,1.0,0.0,73,0.00,,,0.00,vanprod-2.5-rc3,2013-01-15 15:38:00,
2013-01-15 08:43:00,-1.8,-8.9,30.30,NE,40,0.0,0.0,71,0.00,,,0.00,vanprod-2.5-rc3,2013-01-15 15:43:00,
2013-01-15 08:48:00,-1.6,-9.0,30.30,NE,40,0.0,0.0,70,0.00,,,0.00,vanprod-2.5-rc3,2013-01-15 15:48:00,
2013-01-15 08:53:00,-1.4,-9.4,30.30,NE,40,0.0,1.0,68,0.00,,,0.00,vanprod-2.5-rc3,2013-01-15 15:53:00,
2013-01-15 08:58:00,-1.2,-9.5,30.30,NE,40,0.0,1.0,67,0.00,,,0.00,vanprod-2.5-rc3,2013-01-15 15:58:00,
2013-01-15 09:03:00,-0.9,-9.2,30.29,NE,40,0.0,0.0,67,0.00,,,0.00,vanprod-2.5-rc3,2013-01-15 16:03:00,
2013-01-15 09:08:00,-0.7,-9.0,30.29,NE,40,1.0,1.0,67,0.00,,,0.00,vanprod-2.5-rc3,2013-01-15 16:08:00,
2013-01-15 09:13:00,-0.7,-8.7,30.30,NNE,23,0.0,0.0,68,0.00,,,0.00,vanprod-2.5-rc3,2013-01-15 16:13:00,
2013-01-15 09:18:00,-0.7,-8.7,30.30,NNE,23,0.0,0.0,68,0.00,,,0.00,vanprod-2.5-rc3,2013-01-15 16:18:00,
2013-01-15 09:23:00,-0.3,-7.7,30.30,NNE,23,0.0,0.0,70,0.00,,,0.00,vanprod-2.5-rc3,2013-01-15 16:23:00,
2013-01-15 09:28:00,0.4,-7.4,30.30,NNE,27,2.0,2.0,69,0.00,,,0.00,vanprod-2.5-rc3,2013-01-15 16:28:00,
2013-01-15 09:33:00,1.3,-6.8,30.30,East,79,5.0,5.0,68,0.00,,,0.00,vanprod-2.5-rc3,2013-01-15 16:33:00,
2013-01-15 09:38:00,1.5,-7.8,30.31,ENE,65,5.0,6.0,64,0.00,,,0.00,vanprod-2.5-rc3,2013-01-15 16:38:00,
2013-01-15 09:43:00,1.4,-8.3,30.32,ENE,58,4.0,4.0,63,0.00,,,0.00,vanprod-2.5-rc3,2013-01-15 16:43:00,
2013-01-15 09:48:00,1.3,-8.0,30.31,ENE,57,3.0,3.0,64,0.00,,,0.00,vanprod-2.5-rc3,2013-01-15 16:48:00,
2013-01-15 09:53:00,1.4,-7.9,30.31,SW,218,2.0,3.0,64,0.00,,,0.00,vanprod-2.5-rc3,2013-01-15 16:53:00,
2013-01-15 09:58:00,1.3,-7.7,30.31,SSW,201,3.0,3.0,65,0.00,,,0.00,vanprod-2.5-rc3,2013-01-15 16:58:00,
2013-01-15 10:03:00,1.3,-7.7,30.29,SSW,209,0.0,0.0,65,0.00,,,0.00,vanprod-2.5-rc3,2013-01-15 17:03:00,
2013-01-15 10:08:00,1.1,-7.9,30.29,SSW,209,0.0,0.0,65,0.00,,,0.00,vanprod-2.5-rc3,2013-01-15 17:08:00,
2013-01-15 10:13:00,1.3,-7.7,30.29,NNE,26,4.0,6.0,65,0.00,,,0.00,vanprod-2.5-rc3,2013-01-15 17:13:00,
2013-01-15 10:18:00,1.3,-7.7,30.28,NNE,30,12.0,15.0,65,0.00,,,0.00,vanprod-2.5-rc3,2013-01-15 17:18:00,
2013-01-15 10:23:00,1.2,-7.8,30.29,NNE,30,13.0,13.0,65,0.00,,,0.00,vanprod-2.5-rc3,2013-01-15 17:23:00,
2013-01-15 10:28:00,1.4,-7.6,30.28,NE,38,11.0,11.0,65,0.00,,,0.00,vanprod-2.5-rc3,2013-01-15 17:28:00,
2013-01-15 10:33:00,1.7,-7.3,30.29,NE,43,9.0,9.0,65,0.00,,,0.00,vanprod-2.5-rc3,2013-01-15 17:33:00,
2013-01-15 10:38:00,2.0,-7.0,30.29,NE,42,6.0,6.0,65,0.00,,,0.00,vanprod-2.5-rc3,2013-01-15 17:38:00,
2013-01-15 10:43:00,2.7,-5.8,30.30,East,89,3.0,3.0,67,0.00,,,0.00,vanprod-2.5-rc3,2013-01-15 17:43:00,
2013-01-15 10:48:00,3.4,-5.1,30.30,East,97,3.0,6.0,67,0.00,,,0.00,vanprod-2.5-rc3,2013-01-15 17:48:00,
2013-01-15 10:53:00,3.7,-5.4,30.30,East,87,3.0,6.0,65,0.00,,,0.00,vanprod-2.5-rc3,2013-01-15 17:53:00,
2013-01-15 10:58:00,4.1,-5.0,30.29,East,94,4.0,4.0,65,0.00,,,0.00,vanprod-2.5-rc3,2013-01-15 17:58:00,
2013-01-15 11:03:00,4.6,-4.9,30.29,ENE,78,3.0,3.0,64,0.00,,,0.00,vanprod-2.5-rc3,2013-01-15 18:03:00,
2013-01-15 11:08:00,5.2,-4.3,30.29,East,81,3.0,4.0,64,0.00,,,0.00,vanprod-2.5-rc3,2013-01-15 18:08:00,
2013-01-15 11:13:00,5.9,-4.0,30.30,ENE,78,1.0,2.0,63,0.00,,,0.00,vanprod-2.5-rc3,2013-01-15 18:13:00,
2013-01-15 11:18:00,6.4,-3.8,30.29,East,87,2.0,2.0,62,0.00,,,0.00,vanprod-2.5-rc3,2013-01-15 18:18:00,
2013-01-15 11:23:00,6.8,-3.4,30.29,ENE,68,2.0,3.0,62,0.00,,,0.00,vanprod-2.5-rc3,2013-01-15 18:23:00,
2013-01-15 11:28:00,6.9,-4.4,30.29,ENE,59,1.0,2.0,59,0.00,,,0.00,vanprod-2.5-rc3,2013-01-15 18:28:00,
2013-01-15 11:33:00,6.9,-4.0,30.29,East,79,2.0,2.0,60,0.00,,,0.00,vanprod-2.5-rc3,2013-01-15 18:33:00,
2013-01-15 11:38:00,7.4,-3.9,30.29,ENE,64,3.0,3.0,59,0.00,,,0.00,vanprod-2.5-rc3,2013-01-15 18:38:00,
2013-01-15 11:43:00,7.8,-3.5,30.27,ENE,70,0.0,0.0,59,0.00,,,0.00,vanprod-2.5-rc3,2013-01-15 18:43:00,
2013-01-15 11:48:00,8.4,-3.0,30.27,ENE,70,0.0,0.0,59,0.00,,,0.00,vanprod-2.5-rc3,2013-01-15 18:48:00,
2013-01-15 11:53:00,8.8,-2.9,30.27,East,93,0.0,0.0,58,0.00,,,0.00,vanprod-2.5-rc3,2013-01-15 18:53:00,
2013-01-15 11:58:00,9.0,-3.1,30.27,East,94,0.0,0.0,57,0.00,,,0.00,vanprod-2.5-rc3,2013-01-15 18:58:00,
2013-01-15 12:03:00,8.5,-4.0,30.27,NNE,21,0.0,0.0,56,0.00,,,0.00,vanprod-2.5-rc3,2013-01-15 19:03:00,
2013-01-15 12:08:00,8.6,-2.8,30.26,NNE,21,0.0,0.0,59,0.00,,,0.00,vanprod-2.5-rc3,2013-01-15 19:08:00,
2013-01-15 12:13:00,9.7,-1.7,30.27,ENE,67,0.0,0.0,59,0.00,,,0.00,vanprod-2.5-rc3,2013-01-15 19:13:00,
2013-01-15 12:18:00,10.6,-2.0,30.27,NNE,32,0.0,0.0,56,0.00,,,0.00,vanprod-2.5-rc3,2013-01-15 19:18:00,
2013-01-15 12:23:00,11.0,-2.0,30.27,ENE,59,2.0,2.0,55,0.00,,,0.00,vanprod-2.5-rc3,2013-01-15 19:23:00,
2013-01-15 12:28:00,11.6,-1.0,30.25,ENE,70,1.0,3.0,56,0.00,,,0.00,vanprod-2.5-rc3,2013-01-15 19:28:00,
2013-01-15 12:33:00,12.2,-0.1,30.25,East,81,2.0,3.0,57,0.00,,,0.00,vanprod-2.5-rc3,2013-01-15 19:33:00,
2013-01-15 12:38:00,12.7,-0.4,30.25,ENE,62,1.0,0.0,55,0.00,,,0.00,vanprod-2.5-rc3,2013-01-15 19:38:00,
2013-01-15 12:43:00,13.3,0.9,30.25,East,85,2.0,2.0,57,0.00,,,0.00,vanprod-2.5-rc3,2013-01-15 19:43:00,
2013-01-15 12:48:00,13.9,1.1,30.25,East,79,2.0,3.0,56,0.00,,,0.00,vanprod-2.5-rc3,2013-01-15 19:48:00,
2013-01-15 12:53:00,13.9,-0.1,30.25,ENE,64,3.0,4.0,53,0.00,,,0.00,vanprod-2.5-rc3,2013-01-15 19:53:00,
2013-01-15 12:58:00,13.6,0.4,30.25,ENE,69,2.0,4.0,55,0.00,,,0.00,vanprod-2.5-rc3,2013-01-15 19:58:00,
2013-01-15 13:03:00,13.4,-0.5,30.24,ENE,59,3.0,3.0,53,0.00,,,0.00,vanprod-2.5-rc3,2013-01-15 20:03:00,
2013-01-15 13:08:00,13.4,-0.1,30.24,NE,35,3.0,6.0,54,0.00,,,0.00,vanprod-2.5-rc3,2013-01-15 20:08:00,
2013-01-15 13:13:00,12.8,-1.1,30.24,NE,52,4.0,4.0,53,0.00,,,0.00,vanprod-2.5-rc3,2013-01-15 20:13:00,
2013-01-15 13:18:00,12.6,-0.9,30.24,NNE,33,4.0,6.0,54,0.00,,,0.00,vanprod-2.5-rc3,2013-01-15 20:18:00,
2013-01-15 13:23:00,12.6,-0.9,30.24,NNE,33,6.0,6.0,54,0.00,,,0.00,vanprod-2.5-rc3,2013-01-15 20:23:00,
2013-01-15 13:28:00,12.6,-0.9,30.24,NE,39,3.0,3.0,54,0.00,,,0.00,vanprod-2.5-rc3,2013-01-15 20:28:00,
2013-01-15 13:33:00,12.6,-0.9,30.24,NNE,29,6.0,7.0,54,0.00,,,0.00,vanprod-2.5-rc3,2013-01-15 20:33:00,
2013-01-15 13:38:00,12.4,-1.5,30.25,NNE,29,10.0,12.0,53,0.00,,,0.00,vanprod-2.5-rc3,2013-01-15 20:38:00,
2013-01-15 13:43:00,11.9,-1.9,30.25,NE,37,7.0,7.0,53,0.00,,,0.00,vanprod-2.5-rc3,2013-01-15 20:43:00,
2013-01-15 13:48:00,12.2,-1.3,30.25,NE,39,5.0,10.0,54,0.00,,,0.00,vanprod-2.5-rc3,2013-01-15 20:48:00,
2013-01-15 13:53:00,12.5,-1.4,30.23,NE,38,3.0,3.0,53,0.00,,,0.00,vanprod-2.5-rc3,2013-01-15 20:53:00,
2013-01-15 13:58:00,12.8,-0.3,30.23,ENE,57,3.0,3.0,55,0.00,,,0.00,vanprod-2.5-rc3,2013-01-15 20:58:00,
2013-01-15 14:03:00,13.2,-0.3,30.23,NE,50,3.0,4.0,54,0.00,,,0.00,vanprod-2.5-rc3,2013-01-15 21:03:00,
2013-01-15 14:08:00,13.4,-0.5,30.24,NE,51,4.0,6.0,53,0.00,,,0.00,vanprod-2.5-rc3,2013-01-15 21:08:00,
2013-01-15 14:13:00,13.3,-1.0,30.24,NE,36,8.0,10.0,52,0.00,,,0.00,vanprod-2.5-rc3,2013-01-15 21:13:00,
2013-01-15 14:18:00,13.0,-0.9,30.24,NE,43,4.0,7.0,53,0.00,,,0.00,vanprod-2.5-rc3,2013-01-15 21:18:00,
2013-01-15 14:23:00,13.4,0.3,30.24,ENE,68,5.0,5.0,55,0.00,,,0.00,vanprod-2.5-rc3,2013-01-15 21:23:00,
2013-01-15 14:28:00,13.8,0.2,30.24,ENE,59,5.0,5.0,54,0.00,,,0.00,vanprod-2.5-rc3,2013-01-15 21:28:00,
2013-01-15 14:33:00,13.9,-0.1,30.24,NNE,32,5.0,5.0,53,0.00,,,0.00,vanprod-2.5-rc3,2013-01-15 21:33:00,
2013-01-15 14:38:00,14.0,0.0,30.24,NE,53,4.0,4.0,53,0.00,,,0.00,vanprod-2.5-rc3,2013-01-15 21:38:00,
2013-01-15 14:43:00,14.1,-0.3,30.24,ENE,61,5.0,9.0,52,0.00,,,0.00,vanprod-2.5-rc3,2013-01-15 21:43:00,
2013-01-15 14:48:00,14.0,-0.4,30.23,NE,49,3.0,3.0,52,0.00,,,0.00,vanprod-2.5-rc3,2013-01-15 21:48:00,
2013-01-15 14:53:00,14.1,-0.3,30.24,NE,43,4.0,4.0,52,0.00,,,0.00,vanprod-2.5-rc3,2013-01-15 21:53:00,
2013-01-15 14:58:00,14.3,-0.1,30.23,NE,46,5.0,5.0,52,0.00,,,0.00,vanprod-2.5-rc3,2013-01-15 21:58:00,
2013-01-15 15:03:00,14.2,0.2,30.24,NE,47,2.0,2.0,53,0.00,,,0.00,vanprod-2.5-rc3,2013-01-15 22:03:00,
2013-01-15 15:08:00,14.5,0.9,30.25,NE,42,1.0,1.0,54,0.00,,,0.00,vanprod-2.5-rc3,2013-01-15 22:08:00,
2013-01-15 15:13:00,14.7,0.7,30.25,ENE,64,2.0,2.0,53,0.00,,,0.00,vanprod-2.5-rc3,2013-01-15 22:13:00,
2013-01-15 15:18:00,14.7,-0.1,30.25,ENE,57,4.0,4.0,51,0.00,,,0.00,vanprod-2.5-rc3,2013-01-15 22:18:00,
2013-01-15 15:23:00,14.7,1.1,30.25,ENE,77,5.0,5.0,54,0.00,,,0.00,vanprod-2.5-rc3,2013-01-15 22:23:00,
2013-01-15 15:28:00,15.2,1.9,30.25,ENE,69,4.0,4.0,55,0.00,,,0.00,vanprod-2.5-rc3,2013-01-15 22:28:00,
2013-01-15 15:33:00,15.3,1.2,30.26,ENE,57,1.0,1.0,53,0.00,,,0.00,vanprod-2.5-rc3,2013-01-15 22:33:00,
2013-01-15 15:38:00,15.2,0.3,30.27,NE,49,2.0,3.0,51,0.00,,,0.00,vanprod-2.5-rc3,2013-01-15 22:38:00,
2013-01-15 15:43:00,14.7,-0.1,30.26,ENE,65,4.0,5.0,51,0.00,,,0.00,vanprod-2.5-rc3,2013-01-15 22:43:00,
2013-01-15 15:48:00,14.5,0.1,30.25,ENE,65,1.0,0.0,52,0.00,,,0.00,vanprod-2.5-rc3,2013-01-15 22:48:00,
2013-01-15 15:53:00,14.6,1.0,30.26,ENE,63,2.0,2.0,54,0.00,,,0.00,vanprod-2.5-rc3,2013-01-15 22:53:00,
2013-01-15 15:58:00,14.6,1.0,30.26,NE,56,1.0,2.0,54,0.00,,,0.00,vanprod-2.5-rc3,2013-01-15 22:58:00,
2013-01-15 16:03:00,14.6,1.0,30.26,ENE,63,2.0,2.0,54,0.00,,,0.00,vanprod-2.5-rc3,2013-01-15 23:03:00,
2013-01-15 16:08:00,14.6,0.6,30.26,ENE,59,0.0,0.0,53,0.00,,,0.00,vanprod-2.5-rc3,2013-01-15 23:08:00,
2013-01-15 16:13:00,14.5,-0.3,30.26,NNE,27,2.0,2.0,51,0.00,,,0.00,vanprod-2.5-rc3,2013-01-15 23:13:00,
2013-01-15 16:18:00,14.1,-0.7,30.26,NNE,29,5.0,5.0,51,0.00,,,0.00,vanprod-2.5-rc3,2013-01-15 23:18:00,
2013-01-15 16:23:00,13.7,-1.1,30.26,NNE,29,4.0,5.0,51,0.00,,,0.00,vanprod-2.5-rc3,2013-01-15 23:23:00,
2013-01-15 16:28:00,13.5,-1.7,30.26,NE,46,2.0,2.0,50,0.00,,,0.00,vanprod-2.5-rc3,2013-01-15 23:28:00,
2013-01-15 16:33:00,13.5,-0.8,30.26,ENE,57,2.0,3.0,52,0.00,,,0.00,vanprod-2.5-rc3,2013-01-15 23:33:00,
2013-01-15 16:38:00,13.5,-0.8,30.26,ENE,57,3.0,3.0,52,0.00,,,0.00,vanprod-2.5-rc3,2013-01-15 23:38:00,
2013-01-15 16:43:00,13.4,-0.9,30.27,NE,55,2.0,3.0,52,0.00,,,0.00,vanprod-2.5-rc3,2013-01-15 23:43:00,
2013-01-15 16:48:00,13.3,-0.6,30.27,ENE,59,2.0,3.0,53,0.00,,,0.00,vanprod-2.5-rc3,2013-01-15 23:48:00,
2013-01-15 16:53:00,13.1,0.4,30.26,ENE,68,3.0,3.0,56,0.00,,,0.00,vanprod-2.5-rc3,2013-01-15 23:53:00,
2013-01-15 16:58:00,13.0,0.6,30.27,ENE,68,3.0,3.0,57,0.00,,,0.00,vanprod-2.5-rc3,2013-01-15 23:58:00,
2013-01-15 17:03:00,12.8,0.8,30.27,ENE,67,3.0,3.0,58,0.00,,,0.00,vanprod-2.5-rc3,2013-01-16 00:03:00,
2013-01-15 17:08:00,12.7,0.7,30.28,ENE,71,4.0,4.0,58,0.00,,,0.00,vanprod-2.5-rc3,2013-01-16 00:08:00,
2013-01-15 17:13:00,12.6,0.3,30.28,ENE,76,3.0,3.0,57,0.00,,,0.00,vanprod-2.5-rc3,2013-01-16 00:13:00,
2013-01-15 17:18:00,12.4,0.4,30.27,ENE,72,2.0,3.0,58,0.00,,,0.00,vanprod-2.5-rc3,2013-01-16 00:18:00,
2013-01-15 17:23:00,12.2,0.6,30.28,ENE,75,2.0,2.0,59,0.00,,,0.00,vanprod-2.5-rc3,2013-01-16 00:23:00,
2013-01-15 17:28:00,12.1,0.2,30.28,ENE,73,2.0,2.0,58,0.00,,,0.00,vanprod-2.5-rc3,2013-01-16 00:28:00,
2013-01-15 17:33:00,12.0,0.8,30.28,ENE,78,1.0,0.0,60,0.00,,,0.00,vanprod-2.5-rc3,2013-01-16 00:33:00,
2013-01-15 17:38:00,12.1,1.2,30.28,East,81,0.0,0.0,61,0.00,,,0.00,vanprod-2.5-rc3,2013-01-16 00:38:00,
2013-01-15 17:43:00,12.2,1.3,30.28,East,82,0.0,0.0,61,0.00,,,0.00,vanprod-2.5-rc3,2013-01-16 00:43:00,
2013-01-15 17:48:00,12.3,0.7,30.27,East,99,0.0,0.0,59,0.00,,,0.00,vanprod-2.5-rc3,2013-01-16 00:48:00,
2013-01-15 17:53:00,12.4,0.4,30.28,East,101,0.0,0.0,58,0.00,,,0.00,vanprod-2.5-rc3,2013-01-16 00:53:00,
2013-01-15 17:58:00,12.6,1.0,30.28,East,101,0.0,0.0,59,0.00,,,0.00,vanprod-2.5-rc3,2013-01-16 00:58:00,
2013-01-15 18:03:00,12.7,1.8,30.28,East,101,0.0,0.0,61,0.00,,,0.00,vanprod-2.5-rc3,2013-01-16 01:03:00,
2013-01-15 18:08:00,12.7,1.5,30.29,East,98,0.0,0.0,60,0.00,,,0.00,vanprod-2.5-rc3,2013-01-16 01:08:00,
2013-01-15 18:13:00,12.6,1.7,30.29,East,98,0.0,0.0,61,0.00,,,0.00,vanprod-2.5-rc3,2013-01-16 01:13:00,
2013-01-15 18:18:00,12.5,1.6,30.29,East,98,0.0,0.0,61,0.00,,,0.00,vanprod-2.5-rc3,2013-01-16 01:18:00,
2013-01-15 18:23:00,12.4,1.9,30.30,East,95,0.0,0.0,62,0.00,,,0.00,vanprod-2.5-rc3,2013-01-16 01:23:00,
2013-01-15 18:28:00,12.5,1.6,30.30,ENE,73,0.0,0.0,61,0.00,,,0.00,vanprod-2.5-rc3,2013-01-16 01:28:00,
2013-01-15 18:33:00,12.5,1.3,30.30,ENE,74,0.0,3.0,60,0.00,,,0.00,vanprod-2.5-rc3,2013-01-16 01:33:00,
2013-01-15 18:38:00,12.6,1.0,30.30,East,94,0.0,0.0,59,0.00,,,0.00,vanprod-2.5-rc3,2013-01-16 01:38:00,
2013-01-15 18:43:00,12.7,1.1,30.30,ENE,78,0.0,0.0,59,0.00,,,0.00,vanprod-2.5-rc3,2013-01-16 01:43:00,
2013-01-15 18:48:00,12.8,1.6,30.30,East,82,3.0,4.0,60,0.00,,,0.00,vanprod-2.5-rc3,2013-01-16 01:48:00,
2013-01-15 18:53:00,12.9,0.5,30.30,ENE,66,4.0,5.0,57,0.00,,,0.00,vanprod-2.5-rc3,2013-01-16 01:53:00,
2013-01-15 18:58:00,12.9,0.9,30.30,ENE,71,4.0,4.0,58,0.00,,,0.00,vanprod-2.5-rc3,2013-01-16 01:58:00,
2013-01-15 19:03:00,12.9,0.9,30.31,ENE,66,1.0,2.0,58,0.00,,,0.00,vanprod-2.5-rc3,2013-01-16 02:03:00,
2013-01-15 19:08:00,13.0,1.4,30.31,East,81,3.0,3.0,59,0.00,,,0.00,vanprod-2.5-rc3,2013-01-16 02:08:00,
2013-01-15 19:13:00,13.0,1.7,30.31,East,84,3.0,4.0,60,0.00,,,0.00,vanprod-2.5-rc3,2013-01-16 02:13:00,
2013-01-15 19:18:00,13.0,1.0,30.32,ENE,67,4.0,4.0,58,0.00,,,0.00,vanprod-2.5-rc3,2013-01-16 02:18:00,
2013-01-15 19:23:00,12.9,0.5,30.32,ENE,73,5.0,5.0,57,0.00,,,0.00,vanprod-2.5-rc3,2013-01-16 02:23:00,
2013-01-15 19:28:00,12.8,0.8,30.33,ENE,73,5.0,5.0,58,0.00,,,0.00,vanprod-2.5-rc3,2013-01-16 02:28:00,
2013-01-15 19:33:00,12.8,0.8,30.32,East,79,4.0,5.0,58,0.00,,,0.00,vanprod-2.5-rc3,2013-01-16 02:33:00,
2013-01-15 19:38:00,12.8,1.2,30.32,ENE,75,4.0,5.0,59,0.00,,,0.00,vanprod-2.5-rc3,2013-01-16 02:38:00,
2013-01-15 19:43:00,12.8,0.8,30.32,ENE,69,3.0,6.0,58,0.00,,,0.00,vanprod-2.5-rc3,2013-01-16 02:43:00,
2013-01-15 19:48:00,12.8,0.8,30.33,ENE,63,2.0,2.0,58,0.00,,,0.00,vanprod-2.5-rc3,2013-01-16 02:48:00,
2013-01-15 19:53:00,12.7,0.7,30.33,ENE,65,4.0,5.0,58,0.00,,,0.00,vanprod-2.5-rc3,2013-01-16 02:53:00,
2013-01-15 19:58:00,12.8,0.8,30.32,ENE,61,4.0,4.0,58,0.00,,,0.00,vanprod-2.5-rc3,2013-01-16 02:58:00,
2013-01-15 20:03:00,12.8,0.8,30.32,ENE,62,4.0,5.0,58,0.00,,,0.00,vanprod-2.5-rc3,2013-01-16 03:03:00,
2013-01-15 20:08:00,12.7,1.1,30.32,ENE,69,5.0,7.0,59,0.00,,,0.00,vanprod-2.5-rc3,2013-01-16 03:08:00,
2013-01-15 20:13:00,12.4,0.8,30.32,ENE,67,5.0,5.0,59,0.00,,,0.00,vanprod-2.5-rc3,2013-01-16 03:13:00,
2013-01-15 20:18:00,12.2,1.0,30.32,ENE,62,4.0,4.0,60,0.00,,,0.00,vanprod-2.5-rc3,2013-01-16 03:18:00,
2013-01-15 20:23:00,12.1,0.9,30.32,ENE,66,3.0,3.0,60,0.00,,,0.00,vanprod-2.5-rc3,2013-01-16 03:23:00,
2013-01-15 20:28:00,11.9,1.1,30.32,ENE,69,3.0,3.0,61,0.00,,,0.00,vanprod-2.5-rc3,2013-01-16 03:28:00,
2013-01-15 20:33:00,11.8,1.0,30.32,ENE,71,1.0,0.0,61,0.00,,,0.00,vanprod-2.5-rc3,2013-01-16 03:33:00,
2013-01-15 20:38:00,11.8,1.6,30.32,ENE,71,0.0,0.0,63,0.00,,,0.00,vanprod-2.5-rc3,2013-01-16 03:38:00,
2013-01-15 20:43:00,11.8,1.3,30.32,East,80,0.0,0.0,62,0.00,,,0.00,vanprod-2.5-rc3,2013-01-16 03:43:00,
2013-01-15 20:48:00,11.6,1.1,30.32,East,82,0.0,0.0,62,0.00,,,0.00,vanprod-2.5-rc3,2013-01-16 03:48:00,
2013-01-15 20:53:00,11.4,1.3,30.32,East,82,0.0,0.0,63,0.00,,,0.00,vanprod-2.5-rc3,2013-01-16 03:53:00,
2013-01-15 20:58:00,11.1,0.6,30.33,ENE,70,3.0,3.0,62,0.00,,,0.00,vanprod-2.5-rc3,2013-01-16 03:58:00,
2013-01-15 21:03:00,10.9,0.1,30.33,ENE,69,4.0,4.0,61,0.00,,,0.00,vanprod-2.5-rc3,2013-01-16 04:03:00,
2013-01-15 21:08:00,10.8,0.4,30.34,ENE,70,3.0,3.0,62,0.00,,,0.00,vanprod-2.5-rc3,2013-01-16 04:08:00,
2013-01-15 21:13:00,10.9,0.8,30.34,ENE,70,2.0,2.0,63,0.00,,,0.00,vanprod-2.5-rc3,2013-01-16 04:13:00,
2013-01-15 21:18:00,11.0,0.9,30.34,ENE,68,1.0,0.0,63,0.00,,,0.00,vanprod-2.5-rc3,2013-01-16 04:18:00,
2013-01-15 21:23:00,11.2,1.1,30.34,East,90,1.0,2.0,63,0.00,,,0.00,vanprod-2.5-rc3,2013-01-16 04:23:00,
2013-01-15 21:28:00,11.4,0.6,30.34,ENE,68,1.0,0.0,61,0.00,,,0.00,vanprod-2.5-rc3,2013-01-16 04:28:00,
2013-01-15 21:33:00,11.7,0.9,30.34,ENE,60,2.0,0.0,61,0.00,,,0.00,vanprod-2.5-rc3,2013-01-16 04:33:00,
2013-01-15 21:38:00,11.7,0.2,30.34,NE,53,0.0,0.0,59,0.00,,,0.00,vanprod-2.5-rc3,2013-01-16 04:38:00,
2013-01-15 21:43:00,11.6,0.1,30.35,NE,55,4.0,6.0,59,0.00,,,0.00,vanprod-2.5-rc3,2013-01-16 04:43:00,
2013-01-15 21:48:00,11.3,0.1,30.35,ENE,64,5.0,6.0,60,0.00,,,0.00,vanprod-2.5-rc3,2013-01-16 04:48:00,
2013-01-15 21:53:00,11.0,0.2,30.35,ENE,75,4.0,4.0,61,0.00,,,0.00,vanprod-2.5-rc3,2013-01-16 04:53:00,
2013-01-15 21:58:00,10.9,0.4,30.36,East,82,3.0,3.0,62,0.00,,,0.00,vanprod-2.5-rc3,2013-01-16 04:58:00,
2013-01-15 22:00:00,10.9,0.8,30.34,East,81,4.0,4.0,63,0.00,,,0.00,vanprod-2.5-rc3,2013-01-16 05:00:00,
2013-01-15 22:01:00,10.9,0.8,30.34,East,79,3.0,4.0,63,0.00,,,0.00,vanprod-2.5-rc3,2013-01-16 05:01:00,
2013-01-15 22:03:00,10.9,0.8,30.34,ENE,77,4.0,6.0,63,0.00,,,0.00,vanprod-2.5-rc3,2013-01-16 05:03:00,
2013-01-15 22:08:00,11.0,1.6,30.34,East,86,1.0,0.0,65,0.00,,,0.00,vanprod-2.5-rc3,2013-01-16 05:08:00,
2013-01-15 22:13:00,11.0,1.6,30.34,East,87,2.0,4.0,65,0.00,,,0.00,vanprod-2.5-rc3,2013-01-16 05:13:00,
2013-01-15 22:18:00,11.1,1.0,30.34,ENE,61,1.0,2.0,63,0.00,,,0.00,vanprod-2.5-rc3,2013-01-16 05:18:00,
2013-01-15 22:23:00,11.2,0.4,30.35,NNE,30,1.0,2.0,61,0.00,,,0.00,vanprod-2.5-rc3,2013-01-16 05:23:00,
2013-01-15 22:28:00,11.3,0.5,30.35,NE,46,2.0,4.0,61,0.00,,,0.00,vanprod-2.5-rc3,2013-01-16 05:28:00,
2013-01-15 22:33:00,11.0,0.5,30.34,ENE,70,6.0,6.0,62,0.00,,,0.00,vanprod-2.5-rc3,2013-01-16 05:33:00,
2013-01-15 22:38:00,10.7,0.6,30.34,ENE,78,4.0,6.0,63,0.00,,,0.00,vanprod-2.5-rc3,2013-01-16 05:38:00,
2013-01-15 22:43:00,10.4,0.3,30.34,East,82,6.0,6.0,63,0.00,,,0.00,vanprod-2.5-rc3,2013-01-16 05:43:00,
2013-01-15 22:48:00,10.0,-0.4,30.35,ENE,73,4.0,5.0,62,0.00,,,0.00,vanprod-2.5-rc3,2013-01-16 05:48:00,
2013-01-15 22:53:00,9.7,-0.4,30.35,ENE,78,8.0,8.0,63,0.00,,,0.00,vanprod-2.5-rc3,2013-01-16 05:53:00,
2013-01-15 22:58:00,9.2,-0.8,30.36,ENE,68,6.0,7.0,63,0.00,,,0.00,vanprod-2.5-rc3,2013-01-16 05:58:00,
2013-01-15 23:03:00,8.5,-1.5,30.37,ENE,68,7.0,9.0,63,0.00,,,0.00,vanprod-2.5-rc3,2013-01-16 06:03:00,
2013-01-15 23:08:00,8.0,-1.6,30.36,ENE,64,5.0,6.0,64,0.00,,,0.00,vanprod-2.5-rc3,2013-01-16 06:08:00,
2013-01-15 23:13:00,7.6,-2.0,30.37,ENE,64,6.0,11.0,64,0.00,,,0.00,vanprod-2.5-rc3,2013-01-16 06:13:00,
2013-01-15 23:18:00,7.3,-2.0,30.37,ENE,66,6.0,6.0,65,0.00,,,0.00,vanprod-2.5-rc3,2013-01-16 06:18:00,
2013-01-15 23:23:00,7.2,-2.1,30.37,ENE,69,4.0,4.0,65,0.00,,,0.00,vanprod-2.5-rc3,2013-01-16 06:23:00,
2013-01-15 23:28:00,7.0,-1.9,30.37,ENE,71,3.0,5.0,66,0.00,,,0.00,vanprod-2.5-rc3,2013-01-16 06:28:00,
2013-01-15 23:33:00,6.9,-2.0,30.37,ENE,65,3.0,3.0,66,0.00,,,0.00,vanprod-2.5-rc3,2013-01-16 06:33:00,
2013-01-15 23:38:00,7.1,-1.5,30.37,ENE,74,5.0,5.0,67,0.00,,,0.00,vanprod-2.5-rc3,2013-01-16 06:38:00,
2013-01-15 23:43:00,7.2,-1.4,30.37,East,82,4.0,5.0,67,0.00,,,0.00,vanprod-2.5-rc3,2013-01-16 06:43:00,
2013-01-15 23:48:00,7.3,-1.0,30.37,East,89,2.0,5.0,68,0.00,,,0.00,vanprod-2.5-rc3,2013-01-16 06:48:00,
2013-01-15 23:53:00,7.3,-1.0,30.37,East,85,0.0,0.0,68,0.00,,,0.00,vanprod-2.5-rc3,2013-01-16 06:53:00,
2013-01-15 23:58:00,7.4,-1.2,30.37,East,81,0.0,0.0,67,0.00,,,0.00,vanprod-2.5-rc3,2013-01-16 06:58:00,